Time;durP1;ratioP1;P1;durP2;ratioP2;P2;SDS_P1;SDS_P2;PMS_P1;PMS_P2;Temp;Humidity;BMP_temperature;BMP_pressure;BME280_temperature;BME280_humidity;BME280_pressure;Samples;Min_cycle;Max_cycle;Signal;HPM_P1;HPM_P2
2023/04/04 00:00:12;;;;;;;;;;;;;;;-1.06;100.00;96293.16;10517651;28;2646;-73
2023/04/04 00:05:14;;;;;;;;;;;;;;;-1.09;100.00;96299.63;10514538;28;2673;-74
2023/04/04 00:10:18;;;;;;;;;;;;;;;-1.10;100.00;96296.16;10523459;28;2618;-73
2023/04/04 00:15:30;;;;;;;;;;;;;;;-1.14;100.00;96294.94;10518944;28;2313;-73
2023/04/04 00:20:32;;;;;;;;;;;;;;;-1.15;100.00;96279.25;10503867;28;2637;-74
2023/04/04 00:25:36;;;;;;;;;;;;;;;-1.25;100.00;96279.59;10531007;28;2074;-74
2023/04/04 00:30:41;;;;;;;;;;;;;;;-1.24;100.00;96273.31;10517389;28;2515;-73
2023/04/04 00:35:44;;;;;;;;;;;;;;;-1.37;100.00;96270.53;10520449;28;2614;-73
2023/04/04 00:40:48;;;;;;;;;;;;;;;-1.40;100.00;96268.25;10517334;28;2602;-73
2023/04/04 00:45:51;;;;;;;;;;;;;;;-1.43;100.00;96255.44;10525903;28;2242;-73
2023/04/04 00:50:54;;;;;;;;;;;;;;;-1.52;100.00;96262.69;10519465;28;2587;-73
2023/04/04 00:55:58;;;;;;;;;;;;;;;-1.55;100.00;96254.31;10497336;28;2563;-75
2023/04/04 01:01:05;;;;;;;;;;;;;;;-1.58;100.00;96252.06;10521729;28;2155;-73
2023/04/04 01:06:07;;;;;;;;;;;;;;;-1.66;100.00;96253.78;10523789;28;2796;-73
2023/04/04 01:11:11;;;;;;;;;;;;;;;-1.77;100.00;96254.28;10504234;28;2416;-72
2023/04/04 01:16:14;;;;;;;;;;;;;;;-1.88;100.00;96246.84;10519129;28;2344;-73
2023/04/04 01:21:17;;;;;;;;;;;;;;;-1.90;100.00;96243.56;10517542;28;2141;-74
2023/04/04 01:26:20;;;;;;;;;;;;;;;-2.01;100.00;96236.13;10529977;28;2228;-74
2023/04/04 01:31:22;;;;;;;;;;;;;;;-2.03;100.00;96233.69;10523368;28;2323;-73
2023/04/04 01:36:25;;;;;;;;;;;;;;;-2.13;100.00;96234.97;10522093;28;2253;-72
2023/04/04 01:41:28;;;;;;;;;;;;;;;-2.23;100.00;96225.53;10523867;28;2337;-73
2023/04/04 01:46:31;;;;;;;;;;;;;;;-2.29;100.00;96222.78;10523935;28;2572;-74
2023/04/04 01:51:33;;;;;;;;;;;;;;;-2.36;100.00;96217.44;10504820;28;2329;-75
2023/04/04 01:56:36;;;;;;;;;;;;;;;-2.47;100.00;96217.91;10522379;28;2303;-72
2023/04/04 02:01:40;;;;;;;;;;;;;;;-2.50;100.00;96219.06;10521915;28;2648;-72
2023/04/04 02:06:43;;;;;;;;;;;;;;;-2.54;100.00;96220.44;10525727;28;2295;-74
2023/04/04 02:11:53;;;;;;;;;;;;;;;-2.64;100.00;96229.59;10522170;28;2356;-76
2023/04/04 02:16:56;;;;;;;;;;;;;;;-2.68;100.00;96223.03;10524626;28;2569;-76
2023/04/04 02:22:00;;;;;;;;;;;;;;;-2.71;100.00;96218.97;10524179;28;2341;-73
2023/04/04 02:27:03;;;;;;;;;;;;;;;-2.74;100.00;96217.50;10518395;28;2127;-73
2023/04/04 02:32:06;;;;;;;;;;;;;;;-2.77;100.00;96219.69;10526976;28;2320;-72
2023/04/04 02:37:09;;;;;;;;;;;;;;;-2.77;100.00;96209.16;10518334;28;2458;-73
2023/04/04 02:42:12;;;;;;;;;;;;;;;-2.81;100.00;96210.50;10522830;28;2590;-73
2023/04/04 02:47:15;;;;;;;;;;;;;;;-2.89;100.00;96214.03;10521432;28;2618;-73
2023/04/04 02:52:18;;;;;;;;;;;;;;;-2.97;100.00;96203.59;10522067;28;2653;-74
2023/04/04 02:57:21;;;;;;;;;;;;;;;-3.00;100.00;96209.22;10515990;28;2129;-73
2023/04/04 03:02:24;;;;;;;;;;;;;;;-3.03;100.00;96206.94;10517632;28;2574;-72
2023/04/04 03:07:28;;;;;;;;;;;;;;;-3.09;100.00;96205.84;10515089;28;2282;-73
2023/04/04 03:12:30;;;;;;;;;;;;;;;-3.13;100.00;96209.81;10516051;28;2798;-72
2023/04/04 03:17:33;;;;;;;;;;;;;;;-3.16;100.00;96209.38;10517151;28;2662;-72
2023/04/04 03:22:36;;;;;;;;;;;;;;;-3.16;100.00;96209.38;10518295;28;2305;-74
2023/04/04 03:27:39;;;;;;;;;;;;;;;-3.24;100.00;96206.78;10520111;28;2160;-72
2023/04/04 03:32:43;;;;;;;;;;;;;;;-3.29;100.00;96204.72;10516873;28;2188;-74
2023/04/04 03:37:46;;;;;;;;;;;;;;;-3.35;100.00;96210.66;10514727;28;2370;-75
2023/04/04 03:42:48;;;;;;;;;;;;;;;-3.34;100.00;96207.84;10513977;28;2185;-73
2023/04/04 03:47:51;;;;;;;;;;;;;;;-3.37;100.00;96208.22;10515454;28;2313;-72
2023/04/04 03:52:54;;;;;;;;;;;;;;;-3.41;100.00;96217.44;10522673;28;2367;-74
2023/04/04 03:57:57;;;;;;;;;;;;;;;-3.41;100.00;96229.78;10532132;28;2172;-72
2023/04/04 04:03:00;;;;;;;;;;;;;;;-3.42;100.00;96220.25;10529984;28;2152;-74
2023/04/04 04:08:04;;;;;;;;;;;;;;;-3.46;100.00;96227.66;10529927;28;2285;-77
2023/04/04 04:13:06;;;;;;;;;;;;;;;-3.51;100.00;96226.53;10528008;28;2329;-74
2023/04/04 04:18:09;;;;;;;;;;;;;;;-3.54;100.00;96225.09;10522524;28;2559;-75
2023/04/04 04:23:12;;;;;;;;;;;;;;;-3.55;100.00;96226.09;10528227;28;2393;-74
2023/04/04 04:28:16;;;;;;;;;;;;;;;-3.61;100.00;96234.66;10519928;28;2700;-71
2023/04/04 04:33:19;;;;;;;;;;;;;;;-3.56;100.00;96232.34;10530898;28;2614;-73
2023/04/04 04:38:22;;;;;;;;;;;;;;;-3.62;100.00;96235.66;10527413;28;2656;-72
2023/04/04 04:43:25;;;;;;;;;;;;;;;-3.69;100.00;96239.94;10528457;28;2621;-73
2023/04/04 04:48:27;;;;;;;;;;;;;;;-3.67;100.00;96240.63;10513183;28;2622;-74
2023/04/04 04:53:30;;;;;;;;;;;;;;;-3.60;100.00;96236.31;10525012;28;2633;-73
2023/04/04 04:58:33;;;;;;;;;;;;;;;-3.59;100.00;96235.31;10534104;28;2639;-75
2023/04/04 05:03:36;;;;;;;;;;;;;;;-3.56;100.00;96240.22;10527030;28;2219;-74
2023/04/04 05:08:39;;;;;;;;;;;;;;;-3.53;100.00;96242.50;10526981;28;2496;-76
2023/04/04 05:13:42;;;;;;;;;;;;;;;-3.42;100.00;96246.53;10527718;28;2582;-78
2023/04/04 05:18:44;;;;;;;;;;;;;;;-3.23;100.00;96247.88;10522168;28;2563;-76
2023/04/04 05:23:47;;;;;;;;;;;;;;;-2.99;100.00;96242.41;10525756;28;2337;-75
2023/04/04 05:28:50;;;;;;;;;;;;;;;-2.98;100.00;96244.06;10523850;28;2177;-74
2023/04/04 05:33:53;;;;;;;;;;;;;;;-2.90;100.00;96249.25;10518719;28;2608;-72
2023/04/04 05:39:06;;;;;;;;;;;;;;;-2.68;100.00;96255.44;10518486;28;2389;-73
2023/04/04 05:44:08;;;;;;;;;;;;;;;-2.44;100.00;96257.03;10517831;28;2200;-73
2023/04/04 05:49:11;;;;;;;;;;;;;;;-2.30;100.00;96261.47;10515070;28;2138;-74
2023/04/04 05:54:13;;;;;;;;;;;;;;;-2.22;100.00;96245.59;10521853;28;2685;-74
2023/04/04 05:59:16;;;;;;;;;;;;;;;-2.08;100.00;96256.31;10518002;28;2345;-76
2023/04/04 06:04:19;;;;;;;;;;;;;;;-1.82;100.00;96256.63;10525328;28;2155;-77
2023/04/04 06:09:22;;;;;;;;;;;;;;;-1.57;100.00;96258.97;10523893;28;2568;-77
2023/04/04 06:14:25;;;;;;;;;;;;;;;-1.54;100.00;96256.75;10507311;28;2567;-75
2023/04/04 06:19:27;;;;;;;;;;;;;;;-1.40;100.00;96258.56;10515348;28;2192;-76
2023/04/04 06:24:30;;;;;;;;;;;;;;;-1.51;100.00;96258.22;10503713;28;2618;-75
2023/04/04 06:29:33;;;;;;;;;;;;;;;-1.22;100.00;96252.81;10519924;28;2581;-76
2023/04/04 06:34:36;;;;;;;;;;;;;;;-1.01;100.00;96249.38;10514124;28;2933;-73
2023/04/04 06:39:39;;;;;;;;;;;;;;;-0.90;100.00;96251.50;10512747;28;2361;-73
2023/04/04 06:44:42;;;;;;;;;;;;;;;-1.03;100.00;96245.28;10517688;28;2336;-75
2023/04/04 06:49:45;;;;;;;;;;;;;;;-0.93;100.00;96251.06;10514288;28;2196;-77
2023/04/04 06:54:47;;;;;;;;;;;;;;;-0.71;100.00;96239.47;10499645;28;2562;-75
2023/04/04 06:59:50;;;;;;;;;;;;;;;-0.66;100.00;96242.34;10519022;28;2686;-76
2023/04/04 07:04:53;;;;;;;;;;;;;;;-0.63;100.00;96239.34;10509805;28;2914;-74
2023/04/04 07:09:56;;;;;;;;;;;;;;;-0.61;100.00;96239.13;10514843;28;2459;-73
2023/04/04 07:15:00;;;;;;;;;;;;;;;-0.23;100.00;96238.78;10516327;28;2320;-73
2023/04/04 07:20:03;;;;;;;;;;;;;;;-0.18;100.00;96239.03;10516195;28;3044;-75
2023/04/04 07:25:07;;;;;;;;;;;;;;;-0.16;100.00;96243.09;10512028;28;2345;-77
2023/04/04 07:30:09;;;;;;;;;;;;;;;-0.13;100.00;96237.41;10512065;28;2827;-73
2023/04/04 07:35:12;;;;;;;;;;;;;;;-0.37;98.64;96235.25;10516493;28;2318;-74
2023/04/04 07:40:25;;;;;;;;;;;;;;;-0.24;98.57;96239.78;10513466;28;2914;-73
2023/04/04 07:45:28;;;;;;;;;;;;;;;0.12;97.21;96231.63;10512425;28;2529;-72
2023/04/04 07:50:31;;;;;;;;;;;;;;;0.44;94.10;96233.56;10504614;28;2283;-73
2023/04/04 07:55:33;;;;;;;;;;;;;;;0.35;94.11;96226.84;10525949;28;2470;-74
2023/04/04 08:00:37;;;;;;;;;;;;;;;0.10;95.55;96225.72;10509568;28;2445;-76
2023/04/04 08:05:41;;;;;;;;;;;;;;;0.44;94.10;96228.28;10515160;28;2262;-75
2023/04/04 08:10:44;;;;;;;;;;;;;;;0.74;90.79;96233.25;10491029;28;2440;-74
2023/04/04 08:15:47;;;;;;;;;;;;;;;1.05;87.07;96222.09;10511863;28;2454;-72
2023/04/04 08:20:54;;;;;;;;;;;;;;;0.89;85.62;96219.84;10513834;28;2510;-73
2023/04/04 08:25:58;;;;;;;;;;;;;;;1.23;81.57;96226.81;10497156;28;2844;-77
2023/04/04 08:31:03;;;;;;;;;;;;;;;1.25;79.98;96238.00;10493368;28;2234;-75
2023/04/04 08:36:06;;;;;;;;;;;;;;;1.16;80.50;96224.16;10517252;28;2405;-73
2023/04/04 08:41:09;;;;;;;;;;;;;;;0.70;81.60;96232.00;10507063;28;2228;-72
2023/04/04 08:46:21;;;;;;;;;;;;;;;1.30;77.81;96233.72;10519887;28;2930;-73
2023/04/04 08:51:25;;;;;;;;;;;;;;;0.79;79.02;96236.13;10514679;28;2807;-71
2023/04/04 08:56:28;;;;;;;;;;;;;;;0.93;75.59;96248.34;10511638;28;2293;-73
2023/04/04 09:01:30;;;;;;;;;;;;;;;1.78;73.27;96229.97;10514242;28;2287;-75
2023/04/04 09:06:34;;;;;;;;;;;;;;;1.54;64.63;96240.22;10512760;28;2328;-72
2023/04/04 09:11:36;;;;;;;;;;;;;;;1.82;64.20;96233.88;10516944;28;2470;-73
2023/04/04 09:16:39;;;;;;;;;;;;;;;1.70;61.29;96238.16;10512906;28;2381;-76
2023/04/04 09:21:42;;;;;;;;;;;;;;;2.02;61.20;96231.16;10514089;28;2408;-72
2023/04/04 09:26:46;;;;;;;;;;;;;;;1.69;59.13;96247.13;10512714;28;2811;-74
2023/04/04 09:31:49;;;;;;;;;;;;;;;2.12;59.84;96242.97;10514863;28;3008;-75
2023/04/04 09:36:52;;;;;;;;;;;;;;;1.93;60.72;96258.94;10521147;28;2335;-76
2023/04/04 09:41:55;;;;;;;;;;;;;;;2.33;62.43;96243.72;10516679;28;2927;-75
2023/04/04 09:46:59;;;;;;;;;;;;;;;2.78;57.86;96256.97;10505095;28;2951;-73
2023/04/04 09:52:02;;;;;;;;;;;;;;;2.45;57.76;96252.63;10513224;28;2420;-74
2023/04/04 09:57:05;;;;;;;;;;;;;;;2.41;57.62;96256.72;10520144;28;2846;-76
2023/04/04 10:02:08;;;;;;;;;;;;;;;1.89;59.32;96247.91;10520534;28;2311;-77
2023/04/04 10:07:10;;;;;;;;;;;;;;;2.19;56.90;96247.44;10521203;28;2791;-74
2023/04/04 10:12:13;;;;;;;;;;;;;;;2.12;57.23;96258.88;10517830;28;2867;-74
2023/04/04 10:17:17;;;;;;;;;;;;;;;2.45;57.34;96257.94;10517206;28;2851;-71
2023/04/04 10:22:20;;;;;;;;;;;;;;;3.00;56.65;96252.16;10518646;28;2479;-74
2023/04/04 10:27:23;;;;;;;;;;;;;;;1.97;54.12;96260.13;10489235;28;2906;-74
2023/04/04 10:32:25;;;;;;;;;;;;;;;1.83;56.96;96248.75;10498224;28;2835;-73
2023/04/04 10:37:28;;;;;;;;;;;;;;;1.98;57.38;96251.19;10493222;28;2465;-73
2023/04/04 10:42:31;;;;;;;;;;;;;;;1.55;58.67;96247.16;10495703;28;2303;-74
2023/04/04 10:47:33;;;;;;;;;;;;;;;1.63;58.49;96249.59;10512796;28;2501;-74
2023/04/04 10:52:36;;;;;;;;;;;;;;;1.84;57.43;96258.31;10513113;28;2469;-73
2023/04/04 10:57:38;;;;;;;;;;;;;;;1.39;57.05;96252.84;10512447;28;2451;-75
2023/04/04 11:02:41;;;;;;;;;;;;;;;1.51;57.01;96245.13;10511710;28;2499;-74
2023/04/04 11:07:44;;;;;;;;;;;;;;;1.50;56.90;96246.13;10512113;28;2398;-77
2023/04/04 11:13:09;;;;;;;;;;;;;;;1.69;58.35;96239.19;10512550;28;2863;-78
2023/04/04 11:18:14;;;;;;;;;;;;;;;1.95;56.31;96241.78;10508404;28;2329;-73
2023/04/04 11:23:34;;;;;;;;;;;;;;;1.77;59.24;96228.34;10519164;28;2483;-74
2023/04/04 11:28:37;;;;;;;;;;;;;;;1.79;57.35;96234.28;10521814;28;2459;-73
2023/04/04 11:33:42;;;;;;;;;;;;;;;1.90;59.06;96215.88;10515974;28;2898;-76
2023/04/04 11:38:44;;;;;;;;;;;;;;;1.79;57.04;96221.03;10517644;28;2411;-76
2023/04/04 11:43:46;;;;;;;;;;;;;;;1.92;57.76;96213.06;10517517;28;2414;-73
2023/04/04 11:48:49;;;;;;;;;;;;;;;1.52;56.53;96221.06;10517136;28;2910;-75
2023/04/04 11:53:52;;;;;;;;;;;;;;;1.77;55.43;96210.63;10513991;28;2414;-75
2023/04/04 11:58:55;;;;;;;;;;;;;;;1.79;55.93;96218.38;10521637;28;2415;-73
2023/04/04 12:04:12;;;;;;;;;;;;;;;2.51;55.38;96206.69;10520504;28;2289;-74
2023/04/04 12:09:17;;;;;;;;;;;;;;;2.99;54.45;96206.19;10514548;28;2879;-74
2023/04/04 12:14:19;;;;;;;;;;;;;;;3.10;53.41;96192.19;10512486;28;2890;-75
2023/04/04 12:19:22;;;;;;;;;;;;;;;3.32;52.81;96195.31;10518752;28;2455;-76
2023/04/04 12:24:24;;;;;;;;;;;;;;;3.39;52.77;96197.91;10522882;28;2542;-76
2023/04/04 12:29:27;;;;;;;;;;;;;;;3.84;52.59;96189.72;10517762;28;2506;-75
2023/04/04 12:34:30;;;;;;;;;;;;;;;3.70;52.20;96197.81;10520598;28;2933;-75
2023/04/04 12:39:33;;;;;;;;;;;;;;;3.29;53.54;96192.25;10532792;27;2992;-75
2023/04/04 12:44:35;;;;;;;;;;;;;;;3.11;52.63;96183.19;10524992;28;2985;-76
2023/04/04 12:49:38;;;;;;;;;;;;;;;3.05;53.55;96189.38;10514744;28;2404;-74
2023/04/04 12:54:41;;;;;;;;;;;;;;;2.86;52.14;96191.19;10519300;28;2902;-75
2023/04/04 12:59:43;;;;;;;;;;;;;;;2.72;53.03;96185.13;10521671;28;2902;-75
2023/04/04 13:04:56;;;;;;;;;;;;;;;2.78;55.48;96187.94;10516436;28;2942;-72
2023/04/04 13:09:59;;;;;;;;;;;;;;;2.87;53.03;96187.50;10500130;28;2461;-74
2023/04/04 13:15:03;;;;;;;;;;;;;;;2.96;51.82;96182.72;10516496;28;2287;-73
2023/04/04 13:20:07;;;;;;;;;;;;;;;3.04;51.19;96173.66;10513668;28;2874;-73
2023/04/04 13:25:09;;;;;;;;;;;;;;;4.11;48.25;96160.97;10508284;28;2335;-73
2023/04/04 13:30:13;;;;;;;;;;;;;;;3.80;50.30;96170.72;10512903;28;2432;-72
2023/04/04 13:35:17;;;;;;;;;;;;;;;3.51;51.60;96159.78;10513229;28;2450;-73
2023/04/04 13:40:24;;;;;;;;;;;;;;;3.56;48.82;96152.97;10494669;28;2906;-74
2023/04/04 13:45:26;;;;;;;;;;;;;;;3.38;48.91;96156.44;10512715;28;2384;-74
2023/04/04 13:50:31;;;;;;;;;;;;;;;3.90;48.42;96148.94;10528030;27;2863;-75
2023/04/04 13:55:34;;;;;;;;;;;;;;;4.61;48.54;96126.91;10519431;28;2840;-77
2023/04/04 14:00:39;;;;;;;;;;;;;;;3.95;50.13;96141.09;10511268;28;2949;-73
2023/04/04 14:05:42;;;;;;;;;;;;;;;3.99;48.64;96144.94;10513581;28;2831;-73
2023/04/04 14:10:55;;;;;;;;;;;;;;;3.60;49.62;96148.84;10490117;28;2400;-73
2023/04/04 14:16:00;;;;;;;;;;;;;;;3.87;52.10;96149.38;10519092;28;2895;-74
2023/04/04 14:21:02;;;;;;;;;;;;;;;3.89;51.60;96142.81;10515511;28;2297;-76
2023/04/04 14:26:05;;;;;;;;;;;;;;;3.49;53.29;96151.19;10514029;28;2851;-76
2023/04/04 14:31:07;;;;;;;;;;;;;;;3.14;54.40;96148.25;10514762;28;2440;-76
2023/04/04 14:36:20;;;;;;;;;;;;;;;3.11;54.08;96153.16;10509444;28;2467;-74
2023/04/04 14:41:33;;;;;;;;;;;;;;;3.56;52.39;96142.31;10498014;28;2864;-74
2023/04/04 14:46:35;;;;;;;;;;;;;;;3.41;50.49;96150.66;10514700;28;2273;-75
2023/04/04 14:51:38;;;;;;;;;;;;;;;3.51;50.91;96150.97;10518300;28;2400;-75
2023/04/04 14:56:41;;;;;;;;;;;;;;;3.56;50.18;96148.47;10514241;28;2471;-76
2023/04/04 15:01:43;;;;;;;;;;;;;;;4.08;50.64;96135.63;10505119;28;2398;-74
2023/04/04 15:06:46;;;;;;;;;;;;;;;4.14;50.65;96140.06;10513413;28;2397;-76
2023/04/04 15:11:51;;;;;;;;;;;;;;;3.47;51.25;96155.09;10512300;28;2472;-74
2023/04/04 15:16:53;;;;;;;;;;;;;;;3.05;54.66;96152.19;10505017;28;2855;-74
2023/04/04 15:21:55;;;;;;;;;;;;;;;3.11;55.26;96151.31;10516032;28;2456;-73
2023/04/04 15:27:00;;;;;;;;;;;;;;;3.68;54.95;96145.88;10507236;28;3061;-75
2023/04/04 15:32:02;;;;;;;;;;;;;;;3.88;55.05;96135.03;10511405;28;2925;-76
2023/04/04 15:37:05;;;;;;;;;;;;;;;3.75;52.42;96144.81;10507896;28;2434;-72
2023/04/04 15:42:10;;;;;;;;;;;;;;;3.51;52.57;96141.16;10511615;28;2280;-72
2023/04/04 15:47:15;;;;;;;;;;;;;;;2.79;53.84;96155.88;10518123;28;2333;-73
2023/04/04 15:52:19;;;;;;;;;;;;;;;2.66;55.19;96140.03;10509119;28;2922;-75
2023/04/04 15:57:22;;;;;;;;;;;;;;;2.84;56.40;96136.66;10504390;28;2499;-75
2023/04/04 16:02:26;;;;;;;;;;;;;;;3.01;55.34;96134.28;10532203;28;2298;-77
2023/04/04 16:07:28;;;;;;;;;;;;;;;2.87;54.76;96133.56;10514039;28;2791;-73
2023/04/04 16:12:31;;;;;;;;;;;;;;;2.87;54.50;96138.88;10511907;28;2844;-75
2023/04/04 16:17:34;;;;;;;;;;;;;;;2.78;55.16;96134.84;10512866;28;2306;-73
2023/04/04 16:22:37;;;;;;;;;;;;;;;2.69;55.91;96134.31;10515661;28;2935;-74
2023/04/04 16:27:39;;;;;;;;;;;;;;;2.64;56.50;96134.13;10515411;28;2335;-74
2023/04/04 16:32:45;;;;;;;;;;;;;;;2.61;56.19;96132.72;10510870;28;2483;-73
2023/04/04 16:37:47;;;;;;;;;;;;;;;2.66;57.73;96114.31;10510757;28;2452;-72
2023/04/04 16:42:50;;;;;;;;;;;;;;;2.70;56.59;96122.66;10513621;28;2518;-75
2023/04/04 16:47:53;;;;;;;;;;;;;;;2.61;56.61;96118.66;10513847;28;2509;-73
2023/04/04 16:52:57;;;;;;;;;;;;;;;2.42;58.24;96115.09;10518463;28;2319;-74
2023/04/04 16:58:00;;;;;;;;;;;;;;;2.17;56.86;96118.50;10513887;28;2283;-76
2023/04/04 17:03:02;;;;;;;;;;;;;;;2.00;58.49;96116.53;10525305;28;2396;-76
2023/04/04 17:08:04;;;;;;;;;;;;;;;1.94;59.19;96123.50;10517905;28;2435;-76
2023/04/04 17:13:07;;;;;;;;;;;;;;;1.83;60.35;96121.50;10523513;28;2518;-75
2023/04/04 17:18:10;;;;;;;;;;;;;;;1.78;59.28;96123.97;10521556;28;2297;-76
2023/04/04 17:23:12;;;;;;;;;;;;;;;1.67;59.39;96124.63;10516175;28;2275;-77
2023/04/04 17:28:15;;;;;;;;;;;;;;;1.61;60.97;96119.16;10511933;28;2862;-77
2023/04/04 17:33:18;;;;;;;;;;;;;;;1.43;62.34;96121.63;10514190;28;2279;-78
2023/04/04 17:38:20;;;;;;;;;;;;;;;1.45;62.95;96119.59;10518719;28;2339;-77
2023/04/04 17:43:23;;;;;;;;;;;;;;;1.38;61.01;96116.16;10522133;28;2879;-74
2023/04/04 17:48:28;;;;;;;;;;;;;;;1.24;61.67;96122.50;10515381;28;2353;-79
2023/04/04 17:53:31;;;;;;;;;;;;;;;1.21;64.29;96114.94;10520458;28;2492;-79
2023/04/04 17:58:34;;;;;;;;;;;;;;;1.15;66.02;96113.97;10522328;28;2457;-78
2023/04/04 18:03:37;;;;;;;;;;;;;;;1.03;66.79;96112.97;10520747;28;2527;-79
2023/04/04 18:08:40;;;;;;;;;;;;;;;0.95;67.82;96113.97;10501057;28;2302;-78
2023/04/04 18:13:43;;;;;;;;;;;;;;;0.93;68.46;96109.91;10515945;28;3081;-77
2023/04/04 18:18:46;;;;;;;;;;;;;;;0.85;72.77;96116.22;10522583;28;2321;-76
2023/04/04 18:23:48;;;;;;;;;;;;;;;0.84;77.23;96111.94;10526563;28;2513;-75
2023/04/04 18:28:50;;;;;;;;;;;;;;;0.82;76.81;96113.97;10524980;28;3002;-75
2023/04/04 18:33:54;;;;;;;;;;;;;;;0.78;80.09;96118.06;10523754;28;2852;-75
2023/04/04 18:38:57;;;;;;;;;;;;;;;0.68;81.58;96122.94;10526155;28;2476;-75
2023/04/04 18:44:04;;;;;;;;;;;;;;;0.40;86.52;96123.13;10518881;28;2886;-80
2023/04/04 18:49:07;;;;;;;;;;;;;;;0.27;91.09;96121.25;10518989;28;2502;-77
2023/04/04 18:54:10;;;;;;;;;;;;;;;0.38;88.66;96123.31;10518373;28;2460;-79
2023/04/04 18:59:23;;;;;;;;;;;;;;;0.21;90.01;96132.63;10520079;28;2492;-78
2023/04/04 19:04:26;;;;;;;;;;;;;;;0.14;90.96;96126.53;10518573;28;2847;-78
2023/04/04 19:09:29;;;;;;;;;;;;;;;0.09;96.86;96126.31;10500213;28;3062;-75
2023/04/04 19:14:32;;;;;;;;;;;;;;;0.11;94.39;96127.72;10521184;28;2933;-75
2023/04/04 19:19:34;;;;;;;;;;;;;;;-0.04;97.55;96135.81;10521925;28;2406;-74
2023/04/04 19:24:39;;;;;;;;;;;;;;;-0.21;99.87;96126.59;10514271;28;2911;-72
2023/04/04 19:29:42;;;;;;;;;;;;;;;-0.27;100.00;96130.84;10518388;28;2843;-75
2023/04/04 19:34:45;;;;;;;;;;;;;;;-0.13;99.25;96130.88;10519758;28;2348;-74
2023/04/04 19:39:47;;;;;;;;;;;;;;;-0.31;100.00;96134.09;10510957;28;2854;-76
2023/04/04 19:44:59;;;;;;;;;;;;;;;-0.46;100.00;96141.31;10502959;28;2299;-76
2023/04/04 19:50:03;;;;;;;;;;;;;;;-0.43;100.00;96130.38;10515556;28;2933;-74
2023/04/04 19:55:06;;;;;;;;;;;;;;;-0.55;100.00;96130.09;10520671;28;2959;-76
2023/04/04 20:00:08;;;;;;;;;;;;;;;-0.28;100.00;96129.22;10519788;28;2903;-76
2023/04/04 20:05:11;;;;;;;;;;;;;;;-0.55;100.00;96128.28;10522265;28;2946;-76
2023/04/04 20:10:13;;;;;;;;;;;;;;;-0.49;100.00;96120.59;10518088;28;2377;-76
2023/04/04 20:15:16;;;;;;;;;;;;;;;-0.45;100.00;96127.09;10516878;28;2482;-74
2023/04/04 20:20:19;;;;;;;;;;;;;;;-0.55;100.00;96128.28;10516146;28;2269;-73
2023/04/04 20:25:23;;;;;;;;;;;;;;;-0.52;100.00;96124.41;10500708;28;2346;-73
2023/04/04 20:30:26;;;;;;;;;;;;;;;-0.60;100.00;96128.03;10515670;28;2931;-73
2023/04/04 20:35:32;;;;;;;;;;;;;;;-0.63;100.00;96131.09;10517226;28;2425;-76
2023/04/04 20:40:35;;;;;;;;;;;;;;;-0.66;100.00;96125.38;10527095;28;2421;-76
2023/04/04 20:45:38;;;;;;;;;;;;;;;-0.64;100.00;96123.34;10526783;28;2879;-75
2023/04/04 20:50:42;;;;;;;;;;;;;;;-0.68;100.00;96132.69;10524988;28;2577;-74
2023/04/04 20:55:45;;;;;;;;;;;;;;;-0.68;100.00;96135.31;10508770;28;2858;-72
2023/04/04 21:00:48;;;;;;;;;;;;;;;-0.88;100.00;96132.56;10525487;28;2389;-78
2023/04/04 21:05:51;;;;;;;;;;;;;;;-0.76;100.00;96135.44;10516844;28;2911;-73
2023/04/04 21:10:54;;;;;;;;;;;;;;;-0.97;100.00;96131.06;10517803;28;2461;-72
2023/04/04 21:15:56;;;;;;;;;;;;;;;-1.06;100.00;96134.88;10522260;28;2361;-71
2023/04/04 21:20:59;;;;;;;;;;;;;;;-1.10;100.00;96132.59;10523730;28;2839;-71
2023/04/04 21:26:02;;;;;;;;;;;;;;;-1.01;100.00;96127.19;10521620;28;2453;-72
2023/04/04 21:31:06;;;;;;;;;;;;;;;-1.09;100.00;96128.94;10523514;28;2313;-71
2023/04/04 21:36:08;;;;;;;;;;;;;;;-1.16;100.00;96135.19;10510785;28;2473;-71
2023/04/04 21:41:11;;;;;;;;;;;;;;;-1.09;100.00;96114.94;10513983;28;2453;-72
2023/04/04 21:46:14;;;;;;;;;;;;;;;-1.02;100.00;96121.06;10524928;28;2343;-75
2023/04/04 21:51:16;;;;;;;;;;;;;;;-1.04;100.00;96131.00;10516469;28;2897;-73
2023/04/04 21:56:20;;;;;;;;;;;;;;;-1.00;100.00;96128.81;10516491;28;2902;-73
2023/04/04 22:01:22;;;;;;;;;;;;;;;-1.22;100.00;96126.22;10520437;28;2304;-73
2023/04/04 22:06:26;;;;;;;;;;;;;;;-1.32;100.00;96128.38;10518291;28;2391;-72
2023/04/04 22:11:28;;;;;;;;;;;;;;;-1.42;100.00;96126.06;10514553;28;2598;-72
2023/04/04 22:16:31;;;;;;;;;;;;;;;-1.35;100.00;96131.38;10521145;28;2902;-73
2023/04/04 22:21:35;;;;;;;;;;;;;;;-1.28;100.00;96134.88;10510576;28;2898;-73
2023/04/04 22:26:40;;;;;;;;;;;;;;;-1.44;100.00;96119.34;10510109;28;2869;-73
2023/04/04 22:31:43;;;;;;;;;;;;;;;-1.54;100.00;96121.47;10516615;28;2371;-74
2023/04/04 22:36:46;;;;;;;;;;;;;;;-1.57;100.00;96121.88;10518079;28;2875;-72
2023/04/04 22:41:58;;;;;;;;;;;;;;;-1.76;100.00;96113.59;10508861;28;2518;-72
2023/04/04 22:47:04;;;;;;;;;;;;;;;-1.82;100.00;96111.69;10512088;28;2461;-73
2023/04/04 22:52:09;;;;;;;;;;;;;;;-1.80;100.00;96112.31;10511150;28;2488;-72
2023/04/04 22:57:12;;;;;;;;;;;;;;;-1.78;100.00;96107.69;10503217;28;2363;-71
2023/04/04 23:02:14;;;;;;;;;;;;;;;-1.66;100.00;96097.44;10509318;28;2923;-73
2023/04/04 23:07:27;;;;;;;;;;;;;;;-1.80;100.00;96101.78;10518652;28;2411;-72
2023/04/04 23:12:29;;;;;;;;;;;;;;;-1.63;100.00;96097.88;10518723;28;2882;-73
2023/04/04 23:17:33;;;;;;;;;;;;;;;-1.67;100.00;96091.34;10515295;28;2903;-73
2023/04/04 23:22:37;;;;;;;;;;;;;;;-1.82;100.00;96097.72;10517762;28;2967;-72
2023/04/04 23:27:40;;;;;;;;;;;;;;;-1.80;100.00;96095.69;10509834;28;2288;-73
2023/04/04 23:32:43;;;;;;;;;;;;;;;-1.81;100.00;96088.78;10508125;28;2307;-73
2023/04/04 23:37:47;;;;;;;;;;;;;;;-1.90;100.00;96088.13;10515824;28;2859;-73
2023/04/04 23:42:49;;;;;;;;;;;;;;;-1.97;100.00;96085.41;10515180;28;2895;-73
2023/04/04 23:47:53;;;;;;;;;;;;;;;-2.06;100.00;96080.44;10514888;28;2518;-71
2023/04/04 23:52:56;;;;;;;;;;;;;;;-2.19;100.00;96087.19;10511874;28;2843;-72
2023/04/04 23:58:01;;;;;;;;;;;;;;;-2.30;100.00;96082.41;10515769;28;2921;-71
